createdAt,value
2018-06-30T00:00:53.061Z,79.02
2018-06-30T00:01:53.050Z,78.73
2018-06-30T00:02:52.995Z,79.11
2018-06-30T00:03:52.945Z,79.02
2018-06-30T00:04:52.920Z,78.73
2018-06-30T00:05:52.877Z,79.11
2018-06-30T00:06:52.810Z,79.46
2018-06-30T00:07:52.780Z,79.60
2018-06-30T00:08:52.744Z,79.31
2018-06-30T00:09:52.676Z,79.98
2018-06-30T00:10:52.618Z,79.69
2018-06-30T00:11:52.599Z,79.85
2018-06-30T00:12:52.539Z,79.69
2018-06-30T00:13:52.510Z,79.79
2018-06-30T00:14:52.444Z,79.89
2018-06-30T00:15:52.399Z,79.36
2018-06-30T00:16:52.380Z,80.04
2018-06-30T00:17:52.309Z,79.75
2018-06-30T00:18:52.285Z,80.52
2018-06-30T00:19:52.221Z,80.14
2018-06-30T00:20:52.179Z,80.23
2018-06-30T00:21:52.122Z,80.52
2018-06-30T00:22:52.088Z,80.62
2018-06-30T00:23:52.034Z,80.81
2018-06-30T00:24:51.983Z,81.20
2018-06-30T00:25:51.956Z,81.39
2018-06-30T00:26:51.898Z,81.48
2018-06-30T00:27:51.862Z,81.77
2018-06-30T00:28:51.806Z,81.77
2018-06-30T00:29:51.759Z,81.96
2018-06-30T00:30:51.712Z,82.16
2018-06-30T00:31:51.677Z,81.77
2018-06-30T00:32:51.640Z,82.26
2018-06-30T00:33:51.590Z,82.26
2018-06-30T00:34:51.546Z,82.06
2018-06-30T00:35:51.498Z,81.73
2018-06-30T00:36:51.438Z,81.63
2018-06-30T00:37:51.397Z,82.06
2018-06-30T00:38:51.380Z,81.87
2018-06-30T00:39:51.313Z,82.02
2018-06-30T00:40:51.278Z,81.83
2018-06-30T00:41:51.218Z,82.12
2018-06-30T00:42:51.188Z,82.02
2018-06-30T00:43:51.128Z,81.83
2018-06-30T00:44:51.094Z,81.93
2018-06-30T00:45:51.037Z,81.83
2018-06-30T00:46:50.993Z,81.83
2018-06-30T00:47:50.943Z,82.89
2018-06-30T00:48:50.939Z,82.79
2018-06-30T00:49:50.857Z,82.79
2018-06-30T00:50:50.823Z,82.70
2018-06-30T00:51:50.758Z,82.70
2018-06-30T00:52:50.739Z,82.50
2018-06-30T00:53:50.686Z,81.83
2018-06-30T00:54:50.652Z,81.93
2018-06-30T00:55:50.582Z,82.41
2018-06-30T00:56:50.532Z,82.70
2018-06-30T00:57:50.494Z,83.18
2018-06-30T00:58:50.450Z,83.28
2018-06-30T00:59:50.417Z,83.18
2018-06-30T01:00:50.358Z,83.28
2018-06-30T01:01:50.326Z,83.28
2018-06-30T01:02:50.275Z,83.08
2018-06-30T01:03:50.234Z,82.98
2018-06-30T01:04:50.199Z,83.66
2018-06-30T01:05:50.154Z,84.05
2018-06-30T01:06:50.110Z,83.28
2018-06-30T01:07:50.060Z,84.14
2018-06-30T01:08:49.997Z,84.33
2018-06-30T01:09:49.947Z,84.62
2018-06-30T01:10:49.919Z,84.14
2018-06-30T01:11:49.863Z,84.14
2018-06-30T01:12:49.817Z,84.14
2018-06-30T01:13:49.785Z,83.37
2018-06-30T01:14:49.739Z,84.14
2018-06-30T01:15:49.704Z,84.14
2018-06-30T01:16:49.636Z,84.14
2018-06-30T01:17:49.595Z,84.05
2018-06-30T01:18:49.537Z,84.05
2018-06-30T01:19:49.513Z,84.33
2018-06-30T01:20:49.455Z,84.05
2018-06-30T01:21:49.407Z,84.05
2018-06-30T01:22:49.388Z,84.33
2018-06-30T01:23:49.327Z,84.23
2018-06-30T01:24:49.267Z,84.05
2018-06-30T01:25:49.239Z,84.14
2018-06-30T01:26:49.174Z,83.66
2018-06-30T01:27:49.148Z,83.47
2018-06-30T01:28:49.089Z,84.23
2018-06-30T01:29:49.071Z,84.33
2018-06-30T01:30:48.999Z,83.75
2018-06-30T01:31:48.981Z,83.47
2018-06-30T01:32:48.908Z,83.56
2018-06-30T01:33:48.872Z,83.47
2018-06-30T01:34:48.839Z,83.95
2018-06-30T01:35:48.770Z,83.85
2018-06-30T01:36:48.733Z,85.49
2018-06-30T01:37:48.677Z,85.39
2018-06-30T01:38:48.649Z,85.35
2018-06-30T01:39:48.595Z,85.06
2018-06-30T01:40:48.554Z,85.10
2018-06-30T01:41:48.536Z,85.20
2018-06-30T01:42:48.448Z,84.81
2018-06-30T01:43:48.439Z,84.05
2018-06-30T01:44:48.360Z,84.14
2018-06-30T01:45:48.333Z,84.43
2018-06-30T01:46:48.267Z,84.23
2018-06-30T01:47:48.227Z,84.91
2018-06-30T01:48:48.192Z,84.05
2018-06-30T01:49:48.150Z,84.10
2018-06-30T01:50:48.092Z,84.14
2018-06-30T01:51:48.052Z,84.43
2018-06-30T01:52:48.005Z,83.91
2018-06-30T01:53:47.965Z,84.10
2018-06-30T01:54:47.917Z,84.48
2018-06-30T01:55:47.854Z,84.58
2018-06-30T01:56:47.830Z,84.97
2018-06-30T01:57:47.780Z,84.29
2018-06-30T01:58:47.724Z,84.29
2018-06-30T01:59:47.691Z,84.67
2018-06-30T02:00:47.648Z,84.39
2018-06-30T02:01:47.628Z,84.00
2018-06-30T02:02:47.548Z,84.10
2018-06-30T02:03:47.498Z,84.39
2018-06-30T02:04:47.461Z,84.39
2018-06-30T02:05:47.437Z,84.48
2018-06-30T02:06:47.363Z,84.87
2018-06-30T02:07:47.333Z,84.58
2018-06-30T02:08:47.278Z,85.06
2018-06-30T02:09:47.236Z,85.54
2018-06-30T02:10:47.187Z,86.02
2018-06-30T02:11:47.161Z,85.54
2018-06-30T02:12:47.091Z,85.93
2018-06-30T02:13:47.056Z,86.12
2018-06-30T02:14:47.002Z,86.02
2018-06-30T02:15:46.974Z,85.83
2018-06-30T02:16:46.915Z,85.93
2018-06-30T02:17:46.868Z,85.83
2018-06-30T02:18:46.905Z,86.31
2018-06-30T02:19:46.772Z,87.08
2018-06-30T02:20:46.724Z,87.08
2018-06-30T02:21:46.676Z,87.33
2018-06-30T02:22:46.631Z,86.99
2018-06-30T02:23:46.585Z,86.60
2018-06-30T02:24:46.539Z,86.12
2018-06-30T02:25:46.509Z,86.12
2018-06-30T02:26:46.457Z,86.02
2018-06-30T02:27:46.443Z,86.41
2018-06-30T02:28:46.374Z,86.31
2018-06-30T02:29:46.324Z,86.22
2018-06-30T02:30:46.296Z,85.83
2018-06-30T02:31:46.220Z,85.83
2018-06-30T02:32:46.195Z,85.83
2018-06-30T02:33:46.144Z,86.31
2018-06-30T02:34:46.104Z,86.69
2018-06-30T02:35:46.069Z,86.99
2018-06-30T02:36:46.018Z,86.89
2018-06-30T02:37:45.966Z,86.69
2018-06-30T02:38:45.929Z,86.12
2018-06-30T02:39:45.859Z,86.51
2018-06-30T02:40:45.821Z,86.79
2018-06-30T02:41:45.778Z,86.12
2018-06-30T02:42:45.731Z,86.56
2018-06-30T02:43:45.685Z,86.41
2018-06-30T02:44:45.639Z,86.41
2018-06-30T02:45:45.589Z,86.22
2018-06-30T02:46:45.564Z,86.60
2018-06-30T02:47:45.535Z,86.56
2018-06-30T02:48:45.444Z,87.42
2018-06-30T02:49:45.401Z,87.33
2018-06-30T02:50:45.387Z,87.04
2018-06-30T02:51:45.328Z,87.33
2018-06-30T02:52:45.263Z,87.90
2018-06-30T02:53:45.232Z,87.71
2018-06-30T02:54:45.184Z,87.23
2018-06-30T02:55:45.160Z,87.23
2018-06-30T02:56:45.081Z,86.56
2018-06-30T02:57:45.058Z,85.78
2018-06-30T02:58:45.006Z,86.08
2018-06-30T02:59:44.946Z,86.08
2018-06-30T03:00:44.919Z,85.88
2018-06-30T03:01:44.880Z,84.54
2018-06-30T03:02:44.812Z,85.40
2018-06-30T03:03:44.774Z,85.98
2018-06-30T03:04:44.737Z,86.56
2018-06-30T03:05:44.699Z,86.56
2018-06-30T03:06:44.630Z,86.56
2018-06-30T03:07:44.590Z,85.98
2018-06-30T03:08:44.540Z,85.98
2018-06-30T03:09:44.499Z,85.98
2018-06-30T03:10:44.464Z,85.83
2018-06-30T03:11:44.400Z,85.35
2018-06-30T03:12:44.376Z,85.31
2018-06-30T03:13:44.319Z,84.92
2018-06-30T03:14:44.262Z,83.77
2018-06-30T03:15:44.238Z,83.29
2018-06-30T03:16:44.180Z,83.19
2018-06-30T03:17:44.164Z,84.06
2018-06-30T03:18:44.106Z,84.16
2018-06-30T03:19:44.067Z,85.02
2018-06-30T03:20:44.004Z,85.60
2018-06-30T03:21:43.975Z,86.94
2018-06-30T03:22:43.918Z,87.23
2018-06-30T03:23:43.854Z,86.85
2018-06-30T03:24:43.805Z,86.75
2018-06-30T03:25:43.769Z,86.36
2018-06-30T03:26:43.722Z,85.50
2018-06-30T03:27:43.672Z,85.69
2018-06-30T03:28:43.630Z,83.96
2018-06-30T03:29:43.574Z,83.96
2018-06-30T03:30:43.533Z,84.73
2018-06-30T03:31:43.581Z,84.63
2018-06-30T03:32:43.461Z,83.86
2018-06-30T03:33:43.423Z,83.96
2018-06-30T03:34:43.382Z,83.67
2018-06-30T03:35:43.300Z,82.71
2018-06-30T03:36:43.256Z,81.75
2018-06-30T03:37:43.205Z,83.29
2018-06-30T03:38:43.176Z,83.86
2018-06-30T03:39:43.143Z,83.96
2018-06-30T03:40:43.081Z,85.98
2018-06-30T03:41:43.053Z,86.27
2018-06-30T03:42:43.017Z,86.27
2018-06-30T03:43:42.940Z,86.22
2018-06-30T03:44:42.907Z,85.94
2018-06-30T03:45:42.856Z,85.75
2018-06-30T03:46:42.827Z,85.55
2018-06-30T03:47:42.763Z,85.36
2018-06-30T03:48:42.710Z,85.55
2018-06-30T03:49:42.664Z,85.84
2018-06-30T03:50:42.614Z,86.13
2018-06-30T03:51:42.585Z,86.13
2018-06-30T03:52:42.541Z,86.99
2018-06-30T03:53:42.490Z,87.38
2018-06-30T03:54:42.462Z,86.99
2018-06-30T03:55:42.391Z,86.13
2018-06-30T03:56:42.365Z,84.21
2018-06-30T03:57:42.303Z,84.01
2018-06-30T03:58:42.254Z,84.11
2018-06-30T03:59:42.256Z,84.11
2018-06-30T04:00:42.167Z,84.30
2018-06-30T04:01:42.137Z,84.21
2018-06-30T04:02:42.069Z,83.92
2018-06-30T04:03:42.048Z,83.92
2018-06-30T04:04:41.981Z,83.73
2018-06-30T04:05:41.942Z,83.92
2018-06-30T04:06:41.888Z,84.78
2018-06-30T04:07:41.859Z,85.17
2018-06-30T04:08:41.791Z,85.65
2018-06-30T04:09:41.768Z,84.88
2018-06-30T04:10:41.733Z,85.07
2018-06-30T04:11:41.655Z,84.11
2018-06-30T04:12:41.617Z,84.30
2018-06-30T04:13:41.565Z,85.07
2018-06-30T04:14:41.520Z,85.84
2018-06-30T04:15:41.495Z,85.55
2018-06-30T04:16:41.453Z,85.36
2018-06-30T04:17:41.377Z,85.55
2018-06-30T04:18:41.327Z,86.04
2018-06-30T04:19:41.314Z,86.42
2018-06-30T04:20:41.239Z,87.57
2018-06-30T04:21:41.193Z,87.96
2018-06-30T04:22:41.153Z,87.09
2018-06-30T04:23:41.131Z,87.29
2018-06-30T04:24:41.080Z,86.90
2018-06-30T04:25:41.020Z,86.52
2018-06-30T04:26:40.992Z,86.13
2018-06-30T04:27:40.922Z,85.94
2018-06-30T04:28:40.877Z,85.65
2018-06-30T04:29:40.852Z,84.88
2018-06-30T04:30:40.782Z,84.88
2018-06-30T04:31:40.745Z,85.07
2018-06-30T04:32:40.708Z,84.98
2018-06-30T04:33:40.658Z,84.30
2018-06-30T04:34:40.615Z,84.40
2018-06-30T04:35:40.564Z,84.50
2018-06-30T04:36:40.516Z,84.78
2018-06-30T04:37:40.486Z,86.04
2018-06-30T04:38:40.427Z,86.13
2018-06-30T04:39:40.387Z,85.46
2018-06-30T04:40:40.320Z,86.18
2018-06-30T04:41:40.288Z,86.85
2018-06-30T04:42:40.235Z,87.53
2018-06-30T04:43:40.203Z,87.34
2018-06-30T04:44:40.173Z,87.62
2018-06-30T04:45:40.133Z,87.24
2018-06-30T04:46:40.051Z,86.38
2018-06-30T04:47:40.000Z,86.22
2018-06-30T04:48:39.968Z,85.94
2018-06-30T04:49:39.925Z,84.69
2018-06-30T04:50:39.892Z,84.40
2018-06-30T04:51:39.811Z,84.01
2018-06-30T04:52:39.795Z,83.15
2018-06-30T04:53:39.752Z,81.81
2018-06-30T04:54:39.703Z,80.84
2018-06-30T04:55:39.648Z,80.84
2018-06-30T04:56:39.598Z,80.36
2018-06-30T04:57:39.677Z,80.55
2018-06-30T04:58:39.518Z,81.71
2018-06-30T04:59:39.454Z,80.55
2018-06-30T05:00:39.422Z,82.57
2018-06-30T05:01:39.354Z,83.97
2018-06-30T05:02:39.310Z,85.22
2018-06-30T05:03:39.275Z,85.61
2018-06-30T05:04:39.234Z,85.99
2018-06-30T05:05:39.187Z,86.66
2018-06-30T05:06:39.151Z,86.57
2018-06-30T05:07:39.105Z,85.89
2018-06-30T05:08:39.035Z,85.32
2018-06-30T05:09:39.002Z,83.97
2018-06-30T05:10:38.976Z,83.11
2018-06-30T05:11:38.915Z,83.30
2018-06-30T05:12:38.857Z,82.43
2018-06-30T05:13:38.812Z,81.86
2018-06-30T05:14:38.784Z,81.28
2018-06-30T05:15:38.724Z,80.99
2018-06-30T05:16:38.705Z,81.38
2018-06-30T05:17:38.639Z,81.76
2018-06-30T05:18:38.578Z,82.53
2018-06-30T05:19:38.544Z,82.53
2018-06-30T05:20:38.484Z,83.01
2018-06-30T05:21:38.456Z,82.05
2018-06-30T05:22:38.402Z,81.09
2018-06-30T05:23:38.361Z,80.86
2018-06-30T05:24:38.308Z,80.80
2018-06-30T05:25:38.281Z,80.38
2018-06-30T05:26:38.221Z,81.76
2018-06-30T05:27:38.178Z,80.76
2018-06-30T05:28:38.117Z,80.38
2018-06-30T05:29:38.072Z,81.92
2018-06-30T05:30:38.046Z,82.20
2018-06-30T05:31:38.001Z,82.68
2018-06-30T05:32:37.944Z,83.20
2018-06-30T05:33:38.120Z,82.82
2018-06-30T05:34:37.836Z,82.63
2018-06-30T05:35:37.796Z,82.15
2018-06-30T05:36:37.758Z,81.38
2018-06-30T05:37:37.717Z,80.22
2018-06-30T05:38:37.663Z,80.51
2018-06-30T05:39:37.606Z,82.05
2018-06-30T05:40:37.575Z,83.11
2018-06-30T05:41:37.521Z,83.40
2018-06-30T05:42:37.474Z,83.11
2018-06-30T05:43:37.427Z,82.97
2018-06-30T05:44:37.386Z,84.60
2018-06-30T05:45:37.336Z,84.99
2018-06-30T05:46:37.296Z,85.57
2018-06-30T05:47:37.269Z,84.99
2018-06-30T05:48:37.191Z,84.89
2018-06-30T05:49:37.149Z,84.12
2018-06-30T05:50:37.106Z,84.07
2018-06-30T05:51:37.056Z,83.49
2018-06-30T05:52:37.016Z,82.82
2018-06-30T05:53:36.991Z,81.67
2018-06-30T05:54:36.914Z,82.34
2018-06-30T05:55:36.880Z,81.86
2018-06-30T05:56:36.828Z,81.48
2018-06-30T05:57:36.781Z,81.86
2018-06-30T05:58:36.751Z,83.16
2018-06-30T05:59:36.709Z,84.03
2018-06-30T06:00:36.636Z,84.22
2018-06-30T06:01:36.599Z,84.41
2018-06-30T06:02:36.548Z,84.89
2018-06-30T06:03:36.504Z,84.60
2018-06-30T06:04:36.455Z,84.12
2018-06-30T06:05:36.426Z,83.93
2018-06-30T06:06:36.379Z,84.12
2018-06-30T06:07:36.324Z,83.20
2018-06-30T06:08:36.279Z,82.87
2018-06-30T06:09:36.295Z,84.12
2018-06-30T06:10:36.184Z,83.74
2018-06-30T06:11:36.152Z,84.12
2018-06-30T06:12:36.084Z,84.80
2018-06-30T06:13:36.125Z,84.89
2018-06-30T06:14:35.997Z,84.70
2018-06-30T06:15:35.950Z,84.89
2018-06-30T06:16:35.902Z,85.08
2018-06-30T06:17:35.860Z,84.41
2018-06-30T06:18:35.812Z,83.07
2018-06-30T06:19:35.778Z,83.54
2018-06-30T06:20:35.744Z,82.34
2018-06-30T06:21:35.679Z,82.40
2018-06-30T06:22:35.623Z,83.45
2018-06-30T06:23:35.578Z,83.93
2018-06-30T06:24:35.571Z,84.60
2018-06-30T06:25:35.515Z,84.41
2018-06-30T06:26:35.436Z,84.31
2018-06-30T06:27:35.451Z,84.22
2018-06-30T06:28:35.352Z,84.22
2018-06-30T06:29:35.305Z,83.93
2018-06-30T06:30:35.253Z,83.16
2018-06-30T06:31:35.226Z,84.12
2018-06-30T06:32:35.267Z,84.70
2018-06-30T06:33:35.120Z,84.85
2018-06-30T06:34:35.081Z,85.91
2018-06-30T06:35:35.020Z,85.81
2018-06-30T06:36:34.976Z,85.24
2018-06-30T06:37:34.930Z,85.37
2018-06-30T06:38:34.994Z,84.80
2018-06-30T06:39:34.842Z,84.89
2018-06-30T06:40:34.801Z,84.89
2018-06-30T06:41:34.769Z,83.45
2018-06-30T06:42:34.710Z,83.84
2018-06-30T06:43:34.670Z,83.93
2018-06-30T06:44:34.605Z,83.84
2018-06-30T06:45:34.560Z,84.12
2018-06-30T06:46:34.549Z,84.70
2018-06-30T06:47:34.478Z,84.66
2018-06-30T06:48:34.435Z,84.95
2018-06-30T06:49:34.373Z,85.04
2018-06-30T06:50:34.333Z,85.42
2018-06-30T06:51:34.307Z,85.71
2018-06-30T06:52:34.233Z,84.60
2018-06-30T06:53:34.217Z,84.41
2018-06-30T06:54:34.151Z,83.74
2018-06-30T06:55:34.120Z,83.26
2018-06-30T06:56:34.049Z,83.54
2018-06-30T06:57:34.033Z,83.07
2018-06-30T06:58:33.964Z,83.45
2018-06-30T06:59:33.927Z,83.45
2018-06-30T07:00:33.882Z,83.45
2018-06-30T07:01:33.865Z,83.45
2018-06-30T07:02:33.782Z,83.07
2018-06-30T07:03:33.736Z,83.16
2018-06-30T07:04:33.692Z,83.36
2018-06-30T07:05:33.653Z,83.93
2018-06-30T07:06:33.597Z,83.93
2018-06-30T07:07:33.564Z,83.07
2018-06-30T07:08:33.504Z,83.64
2018-06-30T07:09:33.452Z,84.03
2018-06-30T07:10:33.398Z,84.08
2018-06-30T07:11:33.363Z,84.85
2018-06-30T07:12:33.344Z,84.66
2018-06-30T07:13:33.293Z,85.04
2018-06-30T07:14:33.233Z,84.85
2018-06-30T07:15:33.171Z,84.85
2018-06-30T07:16:33.135Z,84.75
2018-06-30T07:17:33.088Z,84.37
2018-06-30T07:18:33.061Z,84.18
2018-06-30T07:19:33.002Z,84.27
2018-06-30T07:20:32.951Z,85.14
2018-06-30T07:21:32.903Z,84.56
2018-06-30T07:22:32.846Z,84.95
2018-06-30T07:23:32.839Z,84.95
2018-06-30T07:24:32.775Z,84.75
2018-06-30T07:25:32.751Z,84.95
2018-06-30T07:26:32.691Z,85.62
2018-06-30T07:27:32.634Z,85.62
2018-06-30T07:28:32.589Z,85.71
2018-06-30T07:29:32.532Z,85.52
2018-06-30T07:30:32.502Z,84.75
2018-06-30T07:31:32.454Z,85.18
2018-06-30T07:32:32.401Z,83.89
2018-06-30T07:33:32.365Z,83.60
2018-06-30T07:34:32.331Z,83.80
2018-06-30T07:35:32.269Z,83.80
2018-06-30T07:36:32.209Z,83.60
2018-06-30T07:37:32.214Z,84.47
2018-06-30T07:38:32.105Z,84.37
2018-06-30T07:39:32.084Z,84.95
2018-06-30T07:40:32.030Z,85.24
2018-06-30T07:41:31.965Z,85.33
2018-06-30T07:42:31.918Z,84.66
2018-06-30T07:43:31.897Z,84.37
2018-06-30T07:44:31.826Z,84.85
2018-06-30T07:45:31.782Z,84.85
2018-06-30T07:46:31.749Z,84.85
2018-06-30T07:47:31.728Z,85.91
2018-06-30T07:48:31.640Z,86.29
2018-06-30T07:49:31.624Z,86.00
2018-06-30T07:50:31.546Z,86.68
2018-06-30T07:51:31.499Z,86.63
2018-06-30T07:52:31.458Z,87.21
2018-06-30T07:53:31.440Z,86.34
2018-06-30T07:54:31.361Z,86.44
2018-06-30T07:55:31.470Z,86.34
2018-06-30T07:56:31.513Z,86.25
2018-06-30T07:57:31.220Z,85.91
2018-06-30T07:58:31.180Z,85.42
2018-06-30T07:59:31.258Z,84.75
2018-06-30T08:00:31.088Z,84.37
2018-06-30T08:01:31.040Z,85.14
2018-06-30T08:02:31.014Z,84.75
2018-06-30T08:03:30.981Z,84.27
2018-06-30T08:04:30.908Z,84.56
2018-06-30T08:05:30.892Z,84.37
2018-06-30T08:06:30.839Z,84.52
2018-06-30T08:07:30.770Z,84.66
2018-06-30T08:08:30.713Z,84.37
2018-06-30T08:09:30.699Z,83.56
2018-06-30T08:10:30.622Z,84.37
2018-06-30T08:11:30.600Z,84.04
2018-06-30T08:12:30.530Z,84.71
2018-06-30T08:13:30.502Z,85.33
2018-06-30T08:14:30.440Z,85.38
2018-06-30T08:15:30.392Z,85.19
2018-06-30T08:16:30.357Z,85.28
2018-06-30T08:17:30.296Z,84.66
2018-06-30T08:18:30.252Z,85.38
2018-06-30T08:19:30.216Z,85.42
2018-06-30T08:20:30.171Z,85.24
2018-06-30T08:21:30.119Z,86.15
2018-06-30T08:22:30.066Z,86.15
2018-06-30T08:23:30.042Z,86.92
2018-06-30T08:24:29.991Z,86.82
2018-06-30T08:25:29.936Z,87.59
2018-06-30T08:26:29.904Z,87.21
2018-06-30T08:27:29.839Z,86.63
2018-06-30T08:28:29.783Z,86.63
2018-06-30T08:29:29.739Z,87.21
2018-06-30T08:30:29.718Z,86.92
2018-06-30T08:31:29.653Z,86.92
2018-06-30T08:32:29.594Z,86.82
2018-06-30T08:33:29.565Z,85.71
2018-06-30T08:34:29.530Z,85.91
2018-06-30T08:35:29.454Z,85.33
2018-06-30T08:36:29.438Z,85.42
2018-06-30T08:37:29.368Z,84.85
2018-06-30T08:38:29.344Z,84.75
2018-06-30T08:39:29.299Z,84.66
2018-06-30T08:40:29.248Z,84.37
2018-06-30T08:41:29.179Z,84.95
2018-06-30T08:42:29.141Z,84.85
2018-06-30T08:43:29.095Z,84.75
2018-06-30T08:44:29.095Z,84.47
2018-06-30T08:45:28.995Z,85.04
2018-06-30T08:46:28.947Z,85.33
2018-06-30T08:47:28.900Z,85.81
2018-06-30T08:48:28.860Z,86.05
2018-06-30T08:49:28.801Z,86.92
2018-06-30T08:50:28.761Z,87.78
2018-06-30T08:51:28.741Z,88.26
2018-06-30T08:52:28.664Z,88.26
2018-06-30T08:53:28.634Z,88.45
2018-06-30T08:54:28.573Z,88.93
2018-06-30T08:55:28.600Z,89.12
2018-06-30T08:56:28.496Z,88.84
2018-06-30T08:57:28.472Z,88.65
2018-06-30T08:58:28.391Z,88.07
2018-06-30T08:59:28.338Z,87.88
2018-06-30T09:00:28.332Z,87.30
2018-06-30T09:01:28.257Z,87.59
2018-06-30T09:02:28.219Z,87.59
2018-06-30T09:03:28.174Z,87.68
2018-06-30T09:04:28.130Z,87.21
2018-06-30T09:05:28.053Z,87.40
2018-06-30T09:06:28.054Z,87.78
2018-06-30T09:07:27.964Z,87.59
2018-06-30T09:08:27.914Z,88.12
2018-06-30T09:09:27.888Z,88.07
2018-06-30T09:10:28.386Z,87.78
2018-06-30T09:11:27.778Z,87.88
2018-06-30T09:12:27.745Z,87.01
2018-06-30T09:13:27.689Z,86.63
2018-06-30T09:14:27.663Z,86.34
2018-06-30T09:15:27.620Z,85.91
2018-06-30T09:16:27.580Z,86.19
2018-06-30T09:17:27.509Z,85.62
2018-06-30T09:18:27.457Z,85.67
2018-06-30T09:19:27.411Z,85.67
2018-06-30T09:20:27.390Z,86.25
2018-06-30T09:21:27.317Z,85.52
2018-06-30T09:22:27.281Z,84.75
2018-06-30T09:23:27.243Z,85.28
2018-06-30T09:24:27.181Z,86.05
2018-06-30T09:25:27.139Z,86.15
2018-06-30T09:26:27.095Z,86.63
2018-06-30T09:27:27.055Z,86.54
2018-06-30T09:28:26.991Z,87.40
2018-06-30T09:29:26.952Z,87.49
2018-06-30T09:30:26.934Z,87.40
2018-06-30T09:31:26.848Z,87.30
2018-06-30T09:32:26.811Z,87.21
2018-06-30T09:33:26.777Z,86.82
2018-06-30T09:34:26.726Z,87.59
2018-06-30T09:35:26.691Z,87.40
2018-06-30T09:36:26.632Z,87.68
2018-06-30T09:37:26.591Z,87.78
2018-06-30T09:38:26.550Z,87.68
2018-06-30T09:39:26.498Z,87.21
2018-06-30T09:40:26.445Z,87.40
2018-06-30T09:41:26.408Z,87.40
2018-06-30T09:42:26.363Z,86.44
2018-06-30T09:43:26.298Z,86.92
2018-06-30T09:44:26.358Z,86.82
2018-06-30T09:45:26.213Z,87.59
2018-06-30T09:46:26.166Z,87.78
2018-06-30T09:47:26.106Z,87.98
2018-06-30T09:48:26.068Z,88.26
2018-06-30T09:49:26.038Z,88.07
2018-06-30T09:50:25.972Z,88.26
2018-06-30T09:51:25.933Z,88.07
2018-06-30T09:52:25.896Z,88.55
2018-06-30T09:53:25.852Z,88.26
2018-06-30T09:54:25.774Z,88.55
2018-06-30T09:55:25.745Z,88.17
2018-06-30T09:56:25.692Z,88.07
2018-06-30T09:57:25.654Z,88.35
2018-06-30T09:58:25.618Z,88.07
2018-06-30T09:59:25.545Z,87.49
2018-06-30T10:00:25.530Z,87.68
2018-06-30T10:01:25.479Z,87.88
2018-06-30T10:02:25.431Z,87.73
2018-06-30T10:03:25.357Z,86.96
2018-06-30T10:04:25.310Z,86.58
2018-06-30T10:05:25.267Z,86.34
2018-06-30T10:06:25.232Z,86.15
2018-06-30T10:07:25.209Z,86.25
2018-06-30T10:08:25.127Z,87.21
2018-06-30T10:09:25.094Z,87.21
2018-06-30T10:10:25.036Z,88.26
2018-06-30T10:11:24.999Z,88.84
2018-06-30T10:12:24.952Z,89.32
2018-06-30T10:13:24.920Z,89.22
2018-06-30T10:14:24.868Z,89.32
2018-06-30T10:15:24.797Z,89.12
2018-06-30T10:16:24.804Z,89.41
2018-06-30T10:17:24.716Z,89.41
2018-06-30T10:18:24.695Z,89.12
2018-06-30T10:19:24.637Z,89.41
2018-06-30T10:20:24.571Z,88.74
2018-06-30T10:21:24.531Z,89.89
2018-06-30T10:22:24.486Z,89.99
2018-06-30T10:23:24.454Z,90.18
2018-06-30T10:24:24.378Z,90.28
2018-06-30T10:25:24.338Z,89.79
2018-06-30T10:26:24.287Z,89.99
2018-06-30T10:27:24.270Z,89.99
2018-06-30T10:28:24.219Z,89.03
2018-06-30T10:29:24.162Z,89.03
2018-06-30T10:30:24.118Z,88.31
2018-06-30T10:31:24.091Z,87.63
2018-06-30T10:32:24.008Z,87.73
2018-06-30T10:33:23.966Z,87.82
2018-06-30T10:34:23.915Z,87.25
2018-06-30T10:35:23.870Z,87.82
2018-06-30T10:36:23.837Z,87.78
2018-06-30T10:37:23.863Z,88.17
2018-06-30T10:38:23.741Z,88.74
2018-06-30T10:39:23.685Z,88.55
2018-06-30T10:40:23.669Z,88.07
2018-06-30T10:41:23.591Z,88.35
2018-06-30T10:42:23.563Z,88.40
2018-06-30T10:43:23.526Z,88.69
2018-06-30T10:44:23.510Z,88.79
2018-06-30T10:45:23.418Z,88.59
2018-06-30T10:46:23.364Z,88.21
2018-06-30T10:47:23.331Z,87.73
2018-06-30T10:48:23.293Z,87.54
2018-06-30T10:49:23.226Z,87.82
2018-06-30T10:50:23.176Z,88.49
2018-06-30T10:51:23.160Z,88.02
2018-06-30T10:52:23.084Z,87.44
2018-06-30T10:53:23.057Z,87.15
2018-06-30T10:54:22.993Z,86.29
2018-06-30T10:55:23.021Z,86.14
2018-06-30T10:56:22.928Z,85.37
2018-06-30T10:57:22.855Z,84.80
2018-06-30T10:58:22.820Z,85.47
2018-06-30T10:59:22.772Z,84.94
2018-06-30T11:00:22.861Z,83.69
2018-06-30T11:01:22.677Z,83.30
2018-06-30T11:02:22.642Z,82.63
2018-06-30T11:03:22.632Z,82.15
2018-06-30T11:04:22.566Z,81.86
2018-06-30T11:05:22.508Z,82.09
2018-06-30T11:06:22.487Z,81.61
2018-06-30T11:07:22.445Z,81.52
2018-06-30T11:08:22.381Z,81.56
2018-06-30T11:09:22.338Z,81.17
2018-06-30T11:10:22.287Z,80.79
2018-06-30T11:11:22.253Z,80.15
2018-06-30T11:12:22.224Z,79.77
2018-06-30T11:13:22.157Z,78.90
2018-06-30T11:14:22.115Z,78.61
2018-06-30T11:15:22.083Z,78.33
2018-06-30T11:16:22.032Z,76.98
2018-06-30T11:17:22.004Z,76.98
2018-06-30T11:18:21.955Z,77.84
2018-06-30T11:19:21.909Z,78.33
2018-06-30T11:20:21.859Z,77.75
2018-06-30T11:21:21.816Z,77.94
2018-06-30T11:22:21.807Z,78.42
2018-06-30T11:23:21.747Z,78.90
2018-06-30T11:24:21.720Z,78.81
2018-06-30T11:25:21.661Z,78.48
2018-06-30T11:26:21.623Z,78.81
2018-06-30T11:27:21.565Z,79.67
2018-06-30T11:28:21.528Z,79.48
2018-06-30T11:29:21.537Z,79.00
2018-06-30T11:30:21.437Z,77.84
2018-06-30T11:31:21.391Z,77.08
2018-06-30T11:32:21.362Z,76.59
2018-06-30T11:33:21.334Z,76.69
2018-06-30T11:34:21.289Z,77.08
2018-06-30T11:35:21.210Z,77.08
2018-06-30T11:36:21.183Z,77.13
2018-06-30T11:37:21.125Z,76.31
2018-06-30T11:38:21.085Z,76.11
2018-06-30T11:39:21.050Z,75.44
2018-06-30T11:40:21.019Z,75.63
2018-06-30T11:41:20.957Z,77.23
2018-06-30T11:42:20.945Z,76.98
2018-06-30T11:43:20.881Z,76.65
2018-06-30T11:44:20.818Z,76.07
2018-06-30T11:45:20.776Z,75.49
2018-06-30T11:46:20.734Z,74.25
2018-06-30T11:47:20.696Z,73.19
2018-06-30T11:48:20.667Z,73.19
2018-06-30T11:49:20.601Z,73.19
2018-06-30T11:50:20.643Z,72.80
2018-06-30T11:51:20.518Z,73.19
2018-06-30T11:52:20.492Z,72.80
2018-06-30T11:53:20.433Z,72.90
2018-06-30T11:54:20.384Z,73.19
2018-06-30T11:55:20.325Z,73.28
2018-06-30T11:56:20.299Z,74.05
2018-06-30T11:57:20.270Z,73.00
2018-06-30T11:58:20.200Z,73.09
2018-06-30T11:59:20.179Z,73.86
2018-06-30T12:00:20.112Z,73.19
2018-06-30T12:01:20.063Z,74.44
2018-06-30T12:02:20.019Z,73.19
2018-06-30T12:03:19.975Z,72.61
2018-06-30T12:04:19.939Z,71.75
2018-06-30T12:05:19.888Z,71.97
2018-06-30T12:06:19.867Z,71.84
2018-06-30T12:07:19.793Z,71.49
2018-06-30T12:08:19.752Z,70.92
2018-06-30T12:09:19.765Z,71.11
2018-06-30T12:10:19.688Z,71.11
2018-06-30T12:11:19.628Z,70.62
2018-06-30T12:12:19.598Z,70.62
2018-06-30T12:13:19.555Z,70.92
2018-06-30T12:14:19.509Z,69.76
2018-06-30T12:15:19.471Z,70.24
2018-06-30T12:16:19.390Z,70.15
2018-06-30T12:17:19.348Z,70.05
2018-06-30T12:18:19.307Z,70.62
2018-06-30T12:19:19.257Z,70.53
2018-06-30T12:20:19.215Z,70.72
2018-06-30T12:21:19.203Z,69.76
2018-06-30T12:22:19.135Z,69.67
2018-06-30T12:23:19.089Z,70.53
2018-06-30T12:24:19.059Z,71.20
2018-06-30T12:25:18.987Z,71.40
2018-06-30T12:26:18.958Z,71.11
2018-06-30T12:27:18.901Z,71.30
2018-06-30T12:28:18.859Z,71.20
2018-06-30T12:29:18.823Z,70.62
2018-06-30T12:30:18.843Z,70.24
2018-06-30T12:31:18.724Z,69.57
2018-06-30T12:32:18.687Z,69.70
2018-06-30T12:33:18.646Z,69.79
2018-06-30T12:34:18.612Z,69.79
2018-06-30T12:35:18.559Z,69.99
2018-06-30T12:36:18.516Z,69.41
2018-06-30T12:37:18.458Z,69.22
2018-06-30T12:38:18.412Z,69.60
2018-06-30T12:39:18.394Z,68.84
2018-06-30T12:40:18.333Z,67.87
2018-06-30T12:41:18.309Z,68.64
2018-06-30T12:42:18.272Z,68.16
2018-06-30T12:43:18.184Z,67.10
2018-06-30T12:44:18.172Z,68.06
2018-06-30T12:45:18.107Z,67.10
2018-06-30T12:46:18.057Z,68.06
2018-06-30T12:47:18.040Z,68.26
2018-06-30T12:48:17.981Z,67.87
2018-06-30T12:49:17.952Z,67.03
2018-06-30T12:50:17.875Z,67.23
2018-06-30T12:51:17.831Z,66.94
2018-06-30T12:52:17.796Z,66.94